Time;durP1;ratioP1;P1;durP2;ratioP2;P2;SDS_P1;SDS_P2;PMS_P1;PMS_P2;Temp;Humidity;BMP_temperature;BMP_pressure;BME280_temperature;BME280_humidity;BME280_pressure;Samples;Min_cycle;Max_cycle;Signal;HPM_P1;HPM_P2
2022/08/17 00:00:43;;;;;;;13.30;8.27;;;16.80;99.90;;;;;;5034965;28;20037;-60
2022/08/17 00:03:16;;;;;;;17.25;9.50;;;16.80;99.90;;;;;;5035471;28;20884;-61
2022/08/17 00:05:46;;;;;;;14.65;8.73;;;16.70;99.90;;;;;;5028288;28;20260;-61
2022/08/17 00:08:15;;;;;;;17.98;9.48;;;16.60;99.90;;;;;;5034452;28;20029;-61
2022/08/17 00:10:42;;;;;;;14.90;8.63;;;16.60;99.90;;;;;;5029078;28;20044;-61
2022/08/17 00:13:12;;;;;;;13.88;8.75;;;16.50;99.90;;;;;;5030962;28;20029;-61
2022/08/17 00:15:38;;;;;;;25.33;9.43;;;16.50;99.90;;;;;;5029405;28;20546;-61
2022/08/17 00:18:03;;;;;;;20.73;8.95;;;16.40;99.90;;;;;;5031709;28;20072;-60
2022/08/17 00:20:29;;;;;;;18.95;9.00;;;16.30;99.90;;;;;;5038443;28;20041;-61
2022/08/17 00:23:07;;;;;;;14.85;8.70;;;16.30;99.90;;;;;;5045885;28;20088;-61
2022/08/17 00:25:33;;;;;;;19.92;9.45;;;16.30;99.90;;;;;;5029563;28;21623;-60
2022/08/17 00:27:59;;;;;;;16.20;9.40;;;16.30;99.90;;;;;;5029452;28;20036;-62
2022/08/17 00:30:25;;;;;;;19.40;9.57;;;16.10;99.90;;;;;;5039401;28;20535;-61
2022/08/17 00:32:50;;;;;;;15.75;9.80;;;16.10;99.90;;;;;;5029832;28;20028;-60
2022/08/17 00:35:22;;;;;;;15.38;9.32;;;16.00;99.90;;;;;;5032905;28;20052;-61
2022/08/17 00:37:48;;;;;;;16.20;10.05;;;15.90;99.90;;;;;;5029494;28;20041;-61
2022/08/17 00:40:15;;;;;;;14.07;9.65;;;15.90;99.90;;;;;;5028792;28;20845;-61
2022/08/17 00:42:42;;;;;;;17.52;9.52;;;16.00;99.90;;;;;;5030083;28;20569;-61
2022/08/17 00:45:11;;;;;;;15.35;9.20;;;16.00;99.90;;;;;;5029923;28;20032;-61
2022/08/17 00:47:37;;;;;;;17.25;10.10;;;16.00;99.90;;;;;;5035461;28;20098;-60
2022/08/17 00:50:05;;;;;;;20.83;9.93;;;16.00;99.90;;;;;;5029851;28;20125;-61
2022/08/17 00:52:46;;;;;;;16.75;9.75;;;15.90;99.90;;;;;;5029851;28;20022;-61
2022/08/17 00:55:12;;;;;;;;;;;15.90;99.90;;;;;;5033396;28;20091;-60
2022/08/17 00:57:42;;;;;;;21.10;9.55;;;15.90;99.90;;;;;;5041816;28;20004;-61
2022/08/17 01:00:14;;;;;;;15.82;9.60;;;15.90;99.90;;;;;;5029791;28;20029;-61
2022/08/17 01:02:42;;;;;;;14.38;8.98;;;15.90;99.90;;;;;;5031174;28;20037;-61
2022/08/17 01:05:13;;;;;;;14.48;9.40;;;15.80;99.90;;;;;;5029153;28;20108;-61
2022/08/17 01:07:40;;;;;;;14.40;10.10;;;15.80;99.90;;;;;;5030115;28;20191;-60
2022/08/17 01:10:10;;;;;;;16.05;9.63;;;15.80;99.90;;;;;;5035683;28;20033;-61
2022/08/17 01:12:36;;;;;;;26.70;10.20;;;15.80;99.90;;;;;;5030992;28;20040;-61
2022/08/17 01:15:03;;;;;;;16.40;10.20;;;15.80;99.90;;;;;;5023026;28;20042;-61
2022/08/17 01:17:29;;;;;;;14.93;10.00;;;15.80;99.90;;;;;;5032451;28;20037;-61
2022/08/17 01:19:55;;;;;;;15.60;9.30;;;15.80;99.90;;;;;;5030031;28;20060;-61
2022/08/17 01:22:25;;;;;;;13.98;9.35;;;15.70;99.90;;;;;;5029300;28;20033;-60
2022/08/17 01:25:01;;;;;;;17.70;9.90;;;15.70;99.90;;;;;;5032665;28;20056;-60
2022/08/17 01:27:28;;;;;;;23.00;10.02;;;15.60;99.90;;;;;;5029700;28;20025;-61
2022/08/17 01:29:58;;;;;;;18.83;10.18;;;15.60;99.90;;;;;;5037289;28;20037;-61
2022/08/17 01:32:25;;;;;;;19.70;9.73;;;15.60;99.90;;;;;;5028376;28;20029;-61
2022/08/17 01:34:52;;;;;;;17.02;9.93;;;15.60;99.90;;;;;;5028735;28;20025;-61
2022/08/17 01:37:26;;;;;;;18.48;9.98;;;15.50;99.90;;;;;;5030174;28;20034;-60
2022/08/17 01:40:03;;;;;;;17.30;10.30;;;15.50;99.90;;;;;;5029937;28;20036;-60
2022/08/17 01:42:53;;;;;;;19.00;10.43;;;15.50;99.90;;;;;;5029731;28;20037;-61
2022/08/17 01:45:32;;;;;;;14.95;9.90;;;15.50;99.90;;;;;;5029217;28;20628;-61
2022/08/17 01:47:59;;;;;;;21.17;10.45;;;15.40;99.90;;;;;;5027899;28;20034;-60
2022/08/17 01:50:33;;;;;;;18.42;10.13;;;15.40;99.90;;;;;;5033781;28;20119;-61
2022/08/17 01:53:03;;;;;;;15.57;10.05;;;15.40;99.90;;;;;;5029576;28;20033;-61
2022/08/17 01:55:38;;;;;;;19.33;10.40;;;15.40;99.90;;;;;;5037680;28;20029;-60
2022/08/17 01:58:08;;;;;;;17.38;10.40;;;15.40;99.90;;;;;;5031914;28;20142;-61
2022/08/17 02:00:37;;;;;;;18.73;9.70;;;15.40;99.90;;;;;;5040349;28;20041;-61
2022/08/17 02:03:03;;;;;;;16.40;10.20;;;15.40;99.90;;;;;;5029238;28;20076;-61
2022/08/17 02:05:29;;;;;;;17.48;10.32;;;15.30;99.90;;;;;;5027788;28;20030;-61
2022/08/17 02:07:55;;;;;;;20.15;10.68;;;15.30;99.90;;;;;;5028467;28;20037;-61
2022/08/17 02:10:21;;;;;;;15.07;10.10;;;15.30;99.90;;;;;;5025886;28;20144;-61
2022/08/17 02:12:48;;;;;;;17.75;9.68;;;15.20;99.90;;;;;;5030246;28;20037;-61
2022/08/17 02:15:14;;;;;;;18.77;9.90;;;15.30;99.90;;;;;;5024683;28;20137;-61
2022/08/17 02:17:39;;;;;;;15.63;10.50;;;15.30;99.90;;;;;;5028203;28;20468;-61
2022/08/17 02:20:07;;;;;;;14.23;10.10;;;15.30;99.90;;;;;;5026879;28;20034;-60
2022/08/17 02:22:34;;;;;;;27.73;10.15;;;15.40;99.90;;;;;;5028082;28;20595;-61
2022/08/17 02:25:00;;;;;;;14.63;9.95;;;15.30;99.90;;;;;;5028546;28;20392;-61
2022/08/17 02:27:26;;;;;;;20.20;10.48;;;15.20;99.90;;;;;;5023696;28;20041;-61
2022/08/17 02:29:52;;;;;;;16.83;10.63;;;15.10;99.90;;;;;;5026679;28;20411;-60
2022/08/17 02:32:21;;;;;;;15.57;9.65;;;15.20;99.90;;;;;;5027591;28;20045;-61
2022/08/17 02:34:47;;;;;;;21.45;10.38;;;15.20;99.90;;;;;;5041886;28;20029;-61
2022/08/17 02:37:16;;;;;;;16.02;9.77;;;15.20;99.90;;;;;;5029121;28;20160;-61
2022/08/17 02:39:41;;;;;;;17.33;10.02;;;15.10;99.90;;;;;;5027378;28;20124;-61
2022/08/17 02:42:07;;;;;;;17.27;9.98;;;15.10;99.90;;;;;;5028889;28;20065;-61
2022/08/17 02:44:33;;;;;;;16.50;10.82;;;15.10;99.90;;;;;;5026376;28;20112;-60
2022/08/17 02:46:59;;;;;;;15.70;10.02;;;15.10;99.90;;;;;;5036975;28;20045;-61
2022/08/17 02:49:25;;;;;;;14.65;10.20;;;15.10;99.90;;;;;;5028601;28;20678;-61
2022/08/17 02:51:50;;;;;;;18.92;10.57;;;15.00;99.90;;;;;;5026397;28;20025;-60
2022/08/17 02:54:16;;;;;;;20.85;11.48;;;15.00;99.90;;;;;;5024954;28;20435;-61
2022/08/17 02:56:42;;;;;;;15.57;10.38;;;15.00;99.90;;;;;;5026029;28;20041;-61
2022/08/17 02:59:08;;;;;;;20.00;10.52;;;15.00;99.90;;;;;;5027467;28;20044;-61
2022/08/17 03:01:33;;;;;;;17.35;10.60;;;14.90;99.90;;;;;;5028353;28;20033;-61
2022/08/17 03:03:59;;;;;;;15.50;10.95;;;14.90;99.90;;;;;;5029118;28;20026;-61
2022/08/17 03:06:25;;;;;;;21.70;11.02;;;14.90;99.90;;;;;;5028807;28;20123;-61
2022/08/17 03:08:53;;;;;;;15.27;10.15;;;14.80;99.90;;;;;;5027389;28;20408;-61
2022/08/17 03:11:18;;;;;;;16.15;10.23;;;14.80;99.90;;;;;;5027287;28;20129;-61
2022/08/17 03:13:44;;;;;;;20.15;10.38;;;14.90;99.90;;;;;;5028289;28;20112;-60
2022/08/17 03:16:10;;;;;;;15.95;10.02;;;14.90;99.90;;;;;;5027643;28;20025;-61
2022/08/17 03:18:36;;;;;;;15.43;10.10;;;14.90;99.90;;;;;;5029324;28;20145;-60
2022/08/17 03:21:03;;;;;;;22.83;10.23;;;14.90;99.90;;;;;;5028219;28;20044;-60
2022/08/17 03:23:30;;;;;;;16.98;11.20;;;14.90;99.90;;;;;;5024765;28;20396;-61
2022/08/17 03:25:56;;;;;;;17.05;10.45;;;14.90;99.90;;;;;;5029152;28;20017;-61
2022/08/17 03:28:22;;;;;;;18.20;10.35;;;14.90;99.90;;;;;;5027135;28;20227;-61
2022/08/17 03:30:49;;;;;;;18.05;10.93;;;14.90;99.90;;;;;;5029102;28;20037;-60
2022/08/17 03:33:15;;;;;;;20.10;11.15;;;14.90;99.90;;;;;;5027316;28;20563;-61
2022/08/17 03:35:41;;;;;;;18.38;10.93;;;14.90;99.90;;;;;;5026206;28;20108;-61
2022/08/17 03:38:09;;;;;;;18.58;11.15;;;14.90;99.90;;;;;;5024977;28;20373;-61
2022/08/17 03:40:35;;;;;;;19.13;10.73;;;14.90;99.90;;;;;;5028097;28;20091;-61
2022/08/17 03:43:07;;;;;;;17.20;10.60;;;14.90;99.90;;;;;;5027969;28;20043;-61
2022/08/17 03:56:41;;;;;;;18.33;10.65;;;15.10;99.90;;;;;;5030559;28;20108;-61
2022/08/17 03:59:11;;;;;;;17.15;10.75;;;15.10;99.90;;;;;;5032267;28;20105;-61
2022/08/17 04:01:37;;;;;;;17.98;11.30;;;15.00;99.90;;;;;;5031864;28;20047;-61
2022/08/17 04:04:04;;;;;;;17.70;10.77;;;15.10;99.90;;;;;;5033042;28;20033;-61
2022/08/17 04:06:29;;;;;;;18.23;11.20;;;15.20;99.90;;;;;;5027810;28;20056;-60
2022/08/17 04:08:55;;;;;;;18.55;10.43;;;15.20;99.90;;;;;;5031597;28;20387;-61
2022/08/17 04:11:21;;;;;;;19.83;10.57;;;15.20;99.90;;;;;;5025049;28;20052;-61
2022/08/17 04:13:46;;;;;;;20.05;10.82;;;15.10;99.90;;;;;;5028216;28;20041;-61
2022/08/17 04:16:12;;;;;;;16.88;11.52;;;15.10;99.90;;;;;;5032491;28;20091;-62
2022/08/17 04:18:38;;;;;;;17.25;10.95;;;15.00;99.90;;;;;;5032593;28;20032;-61
2022/08/17 04:21:03;;;;;;;18.80;10.43;;;14.90;99.90;;;;;;5031546;28;20037;-61
2022/08/17 04:23:32;;;;;;;17.02;10.60;;;14.90;99.90;;;;;;5030684;28;20029;-61
2022/08/17 04:25:58;;;;;;;19.23;11.43;;;14.90;99.90;;;;;;5032298;28;20454;-61
2022/08/17 04:28:23;;;;;;;20.58;12.38;;;14.90;99.90;;;;;;5031587;28;20108;-61
2022/08/17 04:30:49;;;;;;;16.75;10.82;;;14.90;99.90;;;;;;5032702;28;20415;-61
2022/08/17 04:33:22;;;;;;;19.15;10.85;;;15.00;99.90;;;;;;5031438;28;20384;-61
2022/08/17 04:35:55;;;;;;;18.95;10.82;;;15.00;99.90;;;;;;5032349;28;20046;-61
2022/08/17 04:38:23;;;;;;;18.90;10.43;;;15.00;99.90;;;;;;5030582;28;20029;-61
2022/08/17 04:43:35;;;;;;;18.77;10.75;;;14.90;99.90;;;;;;5031010;28;20733;-61
2022/08/17 04:46:04;;;;;;;16.92;10.50;;;14.90;99.90;;;;;;5032228;28;20395;-61
2022/08/17 04:48:46;;;;;;;17.85;10.00;;;14.80;99.90;;;;;;5031234;28;20105;-61
2022/08/17 04:51:18;;;;;;;16.83;10.55;;;14.80;99.90;;;;;;5030001;28;20120;-62
2022/08/17 04:53:47;;;;;;;18.38;12.07;;;14.70;99.90;;;;;;5020219;28;20021;-61
2022/08/17 04:56:14;;;;;;;19.92;11.45;;;14.70;99.90;;;;;;5027797;28;20033;-61
2022/08/17 04:58:45;;;;;;;15.02;10.02;;;14.60;99.90;;;;;;5028720;28;20807;-62
2022/08/17 05:01:11;;;;;;;16.58;10.85;;;14.60;99.90;;;;;;5031643;28;20039;-63
2022/08/17 05:03:36;;;;;;;20.10;10.93;;;14.60;99.90;;;;;;5025719;28;20033;-62
2022/08/17 05:06:02;;;;;;;18.33;10.82;;;14.60;99.90;;;;;;5028703;28;20568;-61
2022/08/17 05:08:28;;;;;;;17.67;10.95;;;14.60;99.90;;;;;;5030681;28;20057;-62
2022/08/17 05:10:53;;;;;;;17.20;11.07;;;14.70;99.90;;;;;;5029921;28;20021;-61
2022/08/17 05:13:22;;;;;;;15.45;10.20;;;14.60;99.90;;;;;;5029372;28;20041;-62
2022/08/17 05:15:51;;;;;;;17.17;10.30;;;14.60;99.90;;;;;;5030321;28;20113;-61
2022/08/17 05:18:17;;;;;;;19.60;11.07;;;14.70;99.90;;;;;;5014977;28;20037;-61
2022/08/17 05:20:43;;;;;;;18.40;10.95;;;14.80;99.90;;;;;;5019009;28;20034;-61
2022/08/17 05:23:13;;;;;;;18.95;10.48;;;14.80;99.90;;;;;;5011625;28;20070;-61
2022/08/17 05:25:42;;;;;;;14.90;10.02;;;14.90;99.90;;;;;;5011605;28;20100;-61
2022/08/17 05:28:09;;;;;;;17.33;11.43;;;15.10;99.90;;;;;;5011492;28;20128;-61
2022/08/17 05:30:36;;;;;;;20.23;12.15;;;15.00;99.90;;;;;;5009116;28;20030;-61
2022/08/17 05:33:18;;;;;;;18.17;11.65;;;15.00;99.90;;;;;;5018294;28;20037;-61
2022/08/17 05:35:47;;;;;;;20.30;12.13;;;15.00;99.90;;;;;;5011244;28;20472;-61
2022/08/17 05:38:15;;;;;;;24.55;12.27;;;14.90;99.90;;;;;;5011034;28;20030;-62
2022/08/17 05:40:41;;;;;;;26.30;12.70;;;14.70;99.90;;;;;;5010996;28;20045;-61
2022/08/17 05:43:12;;;;;;;22.83;12.02;;;14.70;99.90;;;;;;5010004;28;20045;-61
2022/08/17 05:45:45;;;;;;;19.08;12.32;;;14.90;99.90;;;;;;5010388;28;20052;-61
2022/08/17 05:48:11;;;;;;;23.67;11.90;;;15.40;99.90;;;;;;5027945;28;20033;-61
2022/08/17 05:50:57;;;;;;;18.73;11.00;;;15.70;99.90;;;;;;5029134;28;20056;-61
2022/08/17 05:53:38;;;;;;;14.43;9.73;;;16.10;99.90;;;;;;5030056;28;20030;-62
2022/08/17 05:56:12;;;;;;;17.10;10.90;;;16.40;99.90;;;;;;5030949;28;20025;-61
2022/08/17 05:59:03;;;;;;;16.23;10.35;;;16.60;99.90;;;;;;5030194;28;20475;-62
2022/08/17 06:01:28;;;;;;;;;;;16.90;99.90;;;;;;5030495;28;20068;-62
2022/08/17 06:04:11;;;;;;;12.73;8.50;;;17.30;99.90;;;;;;5030783;28;19940;-61
2022/08/17 06:06:48;;;;;;;25.20;9.73;;;17.80;99.90;;;;;;5023344;28;20487;-61
2022/08/17 06:09:39;;;;;;;15.38;9.50;;;18.20;99.90;;;;;;5026662;28;20044;-62
2022/08/17 06:12:32;;;;;;;16.38;9.30;;;18.50;99.90;;;;;;5026440;28;20030;-62
2022/08/17 06:15:01;;;;;;;17.67;10.15;;;18.70;99.90;;;;;;5027054;28;20033;-62
2022/08/17 06:17:28;;;;;;;15.00;9.52;;;18.70;99.90;;;;;;5027495;28;20025;-61
2022/08/17 06:19:58;;;;;;;16.77;9.90;;;18.80;99.90;;;;;;5028455;28;20034;-62
2022/08/17 06:22:32;;;;;;;14.55;8.60;;;18.90;99.90;;;;;;5031066;28;20039;-61
2022/08/17 06:25:13;;;;;;;11.10;8.32;;;18.90;99.90;;;;;;5027456;28;20392;-62
2022/08/17 06:27:51;;;;;;;14.60;8.68;;;19.20;99.90;;;;;;5025557;28;20034;-62
2022/08/17 06:30:20;;;;;;;15.63;9.50;;;19.40;99.90;;;;;;5026752;28;20034;-62
2022/08/17 06:32:48;;;;;;;13.40;8.43;;;19.60;99.90;;;;;;5027231;28;20026;-62
2022/08/17 06:35:32;;;;;;;17.75;9.00;;;19.80;99.90;;;;;;5024349;28;20467;-62
2022/08/17 06:38:17;;;;;;;15.35;9.00;;;19.90;99.90;;;;;;5024748;28;20445;-62
2022/08/17 06:41:04;;;;;;;14.93;8.23;;;20.10;99.90;;;;;;5026938;28;20068;-62
2022/08/17 06:43:40;;;;;;;13.23;8.63;;;20.20;99.90;;;;;;5024018;28;20470;-62
2022/08/17 06:46:29;;;;;;;14.48;8.82;;;20.30;99.90;;;;;;5027771;28;20041;-62
2022/08/17 06:49:32;;;;;;;12.98;8.45;;;20.40;99.90;;;;;;5019074;28;20450;-62
2022/08/17 06:52:16;;;;;;;12.05;7.90;;;20.50;99.90;;;;;;4988123;28;20121;-62
2022/08/17 06:55:08;;;;;;;24.42;8.25;;;20.60;99.90;;;;;;5026678;28;20056;-62
2022/08/17 06:57:44;;;;;;;12.00;8.55;;;20.80;99.90;;;;;;5014785;28;20036;-61
2022/08/17 07:00:19;;;;;;;14.80;8.20;;;21.00;99.90;;;;;;5026376;28;20025;-62
2022/08/17 07:03:27;;;;;;;15.10;7.80;;;21.20;99.90;;;;;;5028322;28;20068;-62
2022/08/17 07:06:09;;;;;;;11.32;7.50;;;21.40;99.90;;;;;;4977245;28;20120;-62
2022/08/17 07:08:53;;;;;;;17.25;8.50;;;21.70;99.90;;;;;;5008944;28;20029;-61
2022/08/17 07:11:29;;;;;;;14.35;7.80;;;21.80;99.90;;;;;;5009624;28;20030;-60
2022/08/17 07:14:36;;;;;;;11.82;7.57;;;22.00;99.90;;;;;;5009957;28;20061;-62
2022/08/17 07:17:12;;;;;;;17.02;7.72;;;22.20;99.90;;;;;;5027253;28;20045;-60
2022/08/17 07:19:40;;;;;;;11.52;7.88;;;22.40;99.90;;;;;;5028446;28;20033;-60
2022/08/17 07:22:36;;;;;;;12.93;8.00;;;22.60;99.90;;;;;;5029608;28;20501;-60
2022/08/17 07:25:06;;;;;;;14.32;7.15;;;22.60;99.90;;;;;;5028197;28;20033;-60
2022/08/17 07:27:39;;;;;;;12.52;7.65;;;22.80;99.90;;;;;;5028723;28;20404;-60
2022/08/17 07:30:23;;;;;;;10.60;7.53;;;22.90;99.20;;;;;;5029550;28;20084;-60
2022/08/17 07:33:07;;;;;;;11.45;7.72;;;23.00;99.20;;;;;;5029447;28;20025;-60
2022/08/17 07:35:38;;;;;;;11.82;7.43;;;23.10;98.40;;;;;;5028254;28;20033;-60
2022/08/17 07:38:27;;;;;;;11.35;7.57;;;23.40;98.20;;;;;;5028263;28;20742;-60
2022/08/17 07:41:01;;;;;;;9.65;7.22;;;23.50;98.60;;;;;;5026104;28;20046;-59
2022/08/17 07:43:39;;;;;;;11.45;7.22;;;23.60;97.00;;;;;;5027263;28;20080;-61
2022/08/17 07:49:11;;;;;;;9.70;7.20;;;23.70;96.60;;;;;;5028487;28;20103;-60
2022/08/17 07:51:43;;;;;;;16.58;7.18;;;23.80;96.00;;;;;;5028371;28;20022;-60
2022/08/17 07:54:14;;;;;;;11.77;6.93;;;23.90;95.40;;;;;;5029087;28;20053;-60
2022/08/17 07:56:55;;;;;;;9.02;6.50;;;24.00;95.10;;;;;;5028282;28;20655;-59
2022/08/17 07:59:30;;;;;;;13.45;6.90;;;24.10;94.70;;;;;;5028776;28;20043;-60
2022/08/17 08:01:56;;;;;;;12.57;7.57;;;24.10;93.70;;;;;;5027744;28;20026;-60
2022/08/17 08:04:39;;;;;;;9.25;6.72;;;24.20;94.70;;;;;;5027836;28;20053;-61
2022/08/17 08:07:20;;;;;;;12.80;6.97;;;24.30;95.10;;;;;;5029078;28;20032;-60
2022/08/17 08:09:58;;;;;;;;;;;24.50;93.20;;;;;;5028606;28;20037;-59
2022/08/17 08:12:33;;;;;;;12.55;7.15;;;24.70;93.40;;;;;;5027599;28;19912;-63
2022/08/17 08:15:12;;;;;;;12.73;6.65;;;24.90;92.40;;;;;;5028980;28;20147;-62
2022/08/17 08:17:46;;;;;;;11.75;6.70;;;25.00;92.60;;;;;;5028147;28;20426;-60
2022/08/17 08:20:12;;;;;;;9.57;6.22;;;25.30;91.70;;;;;;5044143;28;20061;-59
2022/08/17 08:22:59;;;;;;;12.80;7.22;;;25.40;92.10;;;;;;5027833;28;20115;-62
2022/08/17 08:25:58;;;;;;;9.43;6.97;;;25.70;91.20;;;;;;5027507;28;20041;-64
2022/08/17 08:28:39;;;;;;;10.20;6.68;;;25.80;90.60;;;;;;5027202;28;20028;-61
2022/08/17 08:31:39;;;;;;;11.73;6.90;;;25.90;90.90;;;;;;5030014;28;20033;-60
2022/08/17 08:34:23;;;;;;;10.50;6.78;;;26.20;89.20;;;;;;5029842;28;20029;-60
2022/08/17 08:37:28;;;;;;;10.85;6.05;;;26.50;86.80;;;;;;5031141;28;20164;-61
2022/08/17 08:40:17;;;;;;;13.32;6.70;;;26.60;87.00;;;;;;5031279;28;20036;-60
2022/08/17 08:43:13;;;;;;;10.98;6.60;;;26.70;87.20;;;;;;5023809;28;20277;-60
2022/08/17 08:45:55;;;;;;;14.43;7.22;;;26.80;84.20;;;;;;5028198;28;20080;-60
2022/08/17 08:48:42;;;;;;;15.45;6.50;;;26.80;86.80;;;;;;5031859;28;20036;-60
2022/08/17 08:51:19;;;;;;;13.65;6.30;;;26.90;83.10;;;;;;5032181;28;20030;-60
2022/08/17 08:54:02;;;;;;;12.30;6.15;;;27.00;81.50;;;;;;5031049;28;20126;-60
2022/08/17 08:56:43;;;;;;;11.00;6.63;;;27.10;80.50;;;;;;5031195;28;20069;-62
2022/08/17 08:59:26;;;;;;;9.23;5.68;;;27.10;80.10;;;;;;5030895;28;20113;-61
2022/08/17 09:02:10;;;;;;;9.35;6.15;;;27.20;78.90;;;;;;5040302;28;20246;-59
2022/08/17 09:05:08;;;;;;;20.45;5.93;;;27.50;77.60;;;;;;5046205;28;20032;-60
2022/08/17 09:08:09;;;;;;;10.15;6.07;;;27.80;73.10;;;;;;5029271;28;20036;-60
2022/08/17 09:10:55;;;;;;;8.25;5.63;;;27.60;71.60;;;;;;5010822;28;20045;-60
2022/08/17 09:13:50;;;;;;;16.08;5.75;;;27.80;72.40;;;;;;5027769;28;20097;-60
2022/08/17 09:16:35;;;;;;;8.75;5.80;;;28.10;74.00;;;;;;5029736;28;20076;-60
2022/08/17 09:19:07;;;;;;;8.32;5.75;;;28.40;68.80;;;;;;5030395;28;20087;-60
2022/08/17 09:21:45;;;;;;;7.32;5.75;;;28.60;69.30;;;;;;5030623;28;20048;-60
2022/08/17 09:24:22;;;;;;;7.75;5.95;;;28.40;69.00;;;;;;5031292;28;20029;-60
2022/08/17 09:27:03;;;;;;;7.20;5.93;;;28.70;68.60;;;;;;5030705;28;20025;-60
2022/08/17 09:29:34;;;;;;;7.20;5.43;;;28.70;66.60;;;;;;5030858;28;20034;-61
2022/08/17 09:32:05;;;;;;;9.02;5.90;;;28.80;68.30;;;;;;5030692;28;20040;-61
2022/08/17 09:34:38;;;;;;;8.63;5.80;;;28.80;65.90;;;;;;5029061;28;20021;-60
2022/08/17 09:37:25;;;;;;;6.68;5.38;;;28.90;63.70;;;;;;5031289;28;20487;-60
2022/08/17 09:39:51;;;;;;;10.63;5.28;;;28.90;63.60;;;;;;5030626;28;20043;-60
2022/08/17 09:42:31;;;;;;;9.30;5.38;;;28.70;62.40;;;;;;5030921;28;20030;-60
2022/08/17 09:45:19;;;;;;;11.20;5.18;;;28.70;67.30;;;;;;5030945;28;20037;-60
2022/08/17 09:48:02;;;;;;;10.95;5.05;;;28.80;66.40;;;;;;5029494;28;20118;-60
2022/08/17 09:50:37;;;;;;;7.97;5.10;;;29.10;63.90;;;;;;5030905;28;20040;-61
2022/08/17 09:53:03;;;;;;;15.57;5.22;;;29.30;61.90;;;;;;5030927;28;20473;-60
2022/08/17 09:55:46;;;;;;;6.90;5.00;;;29.40;61.20;;;;;;5030306;28;20033;-61
2022/08/17 09:58:33;;;;;;;5.75;5.05;;;29.20;60.80;;;;;;5030283;28;20052;-60
2022/08/17 10:01:15;;;;;;;6.03;5.13;;;29.00;62.80;;;;;;5030547;28;20416;-60
2022/08/17 10:04:25;;;;;;;12.93;6.35;;;29.00;60.00;;;;;;5029960;28;20033;-60
2022/08/17 10:07:05;;;;;;;8.30;5.00;;;28.70;59.70;;;;;;5029005;28;20777;-60
2022/08/17 10:10:03;;;;;;;8.33;5.40;;;28.30;61.90;;;;;;5030230;28;20033;-61
2022/08/17 10:13:02;;;;;;;7.03;5.35;;;28.20;61.80;;;;;;5030415;28;20267;-61
2022/08/17 10:15:35;;;;;;;7.13;4.90;;;28.10;61.40;;;;;;5028093;28;20476;-60
2022/08/17 10:18:41;;;;;;;6.95;5.10;;;28.20;62.00;;;;;;5029511;28;20071;-60
2022/08/17 10:27:16;;;;;;;7.07;5.80;;;28.00;62.50;;;;;;5029615;28;20067;-60
2022/08/17 10:29:44;;;;;;;;;;;28.00;66.90;;;;;;5029914;28;20037;-60
2022/08/17 10:32:22;;;;;;;9.40;7.28;;;27.90;71.10;;;;;;5030217;28;20412;-60
2022/08/17 10:35:24;;;;;;;17.65;7.30;;;27.50;72.80;;;;;;5029320;28;20032;-60
2022/08/17 10:38:18;;;;;;;16.65;7.95;;;27.40;74.20;;;;;;5029346;28;20100;-60
2022/08/17 10:41:05;;;;;;;24.67;7.30;;;27.40;73.90;;;;;;5028110;28;20064;-60
2022/08/17 10:43:43;;;;;;;11.70;7.78;;;27.90;75.40;;;;;;5029708;28;20371;-60
2022/08/17 10:46:25;;;;;;;13.23;7.82;;;28.50;72.70;;;;;;5029861;28;20049;-60
2022/08/17 10:49:16;;;;;;;11.07;6.88;;;29.10;71.70;;;;;;5029218;28;20214;-60
2022/08/17 10:51:46;;;;;;;15.95;7.88;;;29.20;69.20;;;;;;5026786;28;20064;-60
2022/08/17 10:54:24;;;;;;;;;;;29.00;67.60;;;;;;5019097;28;20087;-60
2022/08/17 10:56:54;;;;;;;12.95;7.10;;;28.50;69.20;;;;;;5025487;28;19913;-60
2022/08/17 10:59:35;;;;;;;13.50;6.65;;;27.90;70.20;;;;;;5026450;28;20026;-61
2022/08/17 11:02:11;;;;;;;9.13;6.80;;;27.60;70.90;;;;;;5027896;28;20487;-60
2022/08/17 11:05:18;;;;;;;9.57;5.95;;;27.50;71.20;;;;;;5025467;28;20061;-61
2022/08/17 11:08:04;;;;;;;10.85;6.03;;;27.40;70.90;;;;;;5022119;28;20120;-61
2022/08/17 11:10:48;;;;;;;7.18;5.40;;;27.00;70.70;;;;;;5016272;28;20061;-61
2022/08/17 11:13:43;;;;;;;9.70;5.78;;;26.90;72.00;;;;;;5027313;28;20030;-60
2022/08/17 11:16:27;;;;;;;9.50;5.53;;;26.70;76.50;;;;;;5024061;28;20547;-61
2022/08/17 11:19:11;;;;;;;9.38;5.60;;;26.40;75.10;;;;;;5024774;28;20207;-61
2022/08/17 11:22:14;;;;;;;10.13;5.57;;;25.90;82.20;;;;;;5028159;28;20107;-61
2022/08/17 11:24:46;;;;;;;9.30;5.38;;;25.60;86.10;;;;;;5028465;28;20030;-61
2022/08/17 11:27:34;;;;;;;7.40;5.40;;;25.40;87.20;;;;;;5028540;28;20511;-61
2022/08/17 11:30:04;;;;;;;5.95;5.13;;;25.40;83.90;;;;;;5009471;28;20508;-60
2022/08/17 11:32:47;;;;;;;7.45;5.20;;;25.40;83.50;;;;;;5009437;28;20512;-60
2022/08/17 11:35:21;;;;;;;8.98;5.13;;;25.60;81.40;;;;;;5023242;28;20061;-61
2022/08/17 11:38:26;;;;;;;9.75;5.35;;;26.00;78.10;;;;;;5027410;28;20033;-61
2022/08/17 11:41:17;;;;;;;8.85;6.20;;;26.20;78.80;;;;;;5027631;28;20139;-61
2022/08/17 11:44:01;;;;;;;7.07;5.57;;;26.60;78.50;;;;;;5023521;28;20034;-60
2022/08/17 11:52:54;;;;;;;7.82;5.38;;;27.60;78.60;;;;;;5014540;28;20048;-61
2022/08/17 11:55:31;;;;;;;7.97;5.80;;;28.20;74.90;;;;;;5025430;28;20067;-61
2022/08/17 11:58:28;;;;;;;12.90;5.88;;;28.40;72.30;;;;;;5020377;28;20029;-61
2022/08/17 12:01:11;;;;;;;7.03;5.40;;;28.70;74.70;;;;;;5039378;28;20095;-61
2022/08/17 12:03:36;;;;;;;7.93;5.85;;;28.80;70.50;;;;;;5027456;28;20029;-61
2022/08/17 12:06:26;;;;;;;12.48;6.00;;;28.40;70.50;;;;;;5029875;28;20653;-60
2022/08/17 12:09:20;;;;;;;13.00;6.25;;;27.30;75.10;;;;;;5032367;28;20048;-60
2022/08/17 12:11:58;;;;;;;10.25;6.40;;;26.70;78.00;;;;;;5029541;28;20116;-61
2022/08/17 12:14:28;;;;;;;14.15;6.40;;;26.50;78.70;;;;;;5031985;28;20483;-61
2022/08/17 12:17:14;;;;;;;12.27;6.88;;;26.30;79.30;;;;;;5030373;28;20819;-61
2022/08/17 12:19:41;;;;;;;10.77;6.05;;;26.40;79.10;;;;;;5020049;28;20123;-61
2022/08/17 12:22:31;;;;;;;8.13;6.03;;;26.50;77.00;;;;;;5029720;28;20041;-61
2022/08/17 12:25:30;;;;;;;8.45;5.85;;;26.60;78.80;;;;;;5031001;28;20029;-60
2022/08/17 12:27:55;;;;;;;10.13;5.85;;;26.90;73.40;;;;;;5028680;28;20033;-61
2022/08/17 12:30:21;;;;;;;13.15;5.95;;;27.00;75.00;;;;;;5032494;28;20037;-61
2022/08/17 12:32:48;;;;;;;11.80;6.00;;;27.30;73.50;;;;;;5030723;28;20546;-61
2022/08/17 12:35:33;;;;;;;9.93;5.75;;;27.30;72.20;;;;;;5031530;28;20033;-61
2022/08/17 12:38:01;;;;;;;8.20;5.28;;;27.70;71.80;;;;;;5030607;28;20109;-61
2022/08/17 12:40:31;;;;;;;10.40;5.43;;;28.30;69.50;;;;;;5031088;28;20038;-61
2022/08/17 12:43:17;;;;;;;7.32;5.45;;;28.10;70.20;;;;;;5030588;28;20063;-61
2022/08/17 12:45:45;;;;;;;9.05;5.18;;;28.70;69.90;;;;;;5028211;28;20050;-61
2022/08/17 12:48:20;;;;;;;7.60;4.93;;;28.80;69.00;;;;;;5029259;28;20028;-61
2022/08/17 12:50:48;;;;;;;8.98;5.30;;;29.00;66.30;;;;;;5025158;28;20033;-61
2022/08/17 12:53:26;;;;;;;8.07;5.55;;;28.90;64.20;;;;;;5031120;28;20040;-61
2022/08/17 12:55:53;;;;;;;10.10;5.82;;;28.90;65.40;;;;;;5030181;28;20422;-61
2022/08/17 12:58:23;;;;;;;10.10;5.38;;;28.80;65.50;;;;;;5030015;28;20029;-61
2022/08/17 13:01:16;;;;;;;7.15;5.47;;;28.80;67.30;;;;;;5031021;28;20055;-61
2022/08/17 13:03:48;;;;;;;6.63;5.57;;;28.70;64.40;;;;;;5026997;28;20048;-61
2022/08/17 13:06:32;;;;;;;11.23;5.88;;;28.50;66.60;;;;;;5030793;28;20029;-61
2022/08/17 13:09:12;;;;;;;8.55;5.30;;;28.80;68.60;;;;;;5027852;28;20033;-61
2022/08/17 13:11:51;;;;;;;14.90;5.55;;;29.10;64.50;;;;;;5029283;28;20159;-60
2022/08/17 13:14:17;;;;;;;9.70;5.25;;;29.10;63.00;;;;;;5030781;28;20029;-61
2022/08/17 13:16:54;;;;;;;7.40;5.40;;;29.20;62.30;;;;;;5028341;28;20045;-61
2022/08/17 13:19:21;;;;;;;11.00;5.35;;;29.50;61.90;;;;;;5025471;28;20040;-61
2022/08/17 13:21:53;;;;;;;6.32;5.10;;;29.60;59.50;;;;;;5028795;28;20767;-61
2022/08/17 13:24:33;;;;;;;9.23;5.28;;;29.60;58.50;;;;;;5030526;28;20109;-61
2022/08/17 13:27:01;;;;;;;6.82;4.85;;;29.50;60.50;;;;;;5019955;28;20045;-61
2022/08/17 13:29:30;;;;;;;8.00;5.35;;;29.60;60.20;;;;;;5027880;28;20037;-62
2022/08/17 13:32:07;;;;;;;8.00;5.72;;;29.40;58.70;;;;;;5025157;28;20109;-62
2022/08/17 13:34:40;;;;;;;6.65;5.32;;;29.40;59.80;;;;;;5029324;28;20108;-62
2022/08/17 13:39:49;;;;;;;9.07;5.13;;;30.10;59.00;;;;;;5029053;28;20132;-62
2022/08/17 13:42:38;;;;;;;9.38;5.57;;;30.50;58.60;;;;;;5029302;28;20116;-61
2022/08/17 13:45:27;;;;;;;10.88;5.43;;;30.80;56.80;;;;;;5027422;28;20037;-62
2022/08/17 13:48:14;;;;;;;6.50;4.95;;;30.80;56.50;;;;;;5020461;28;20073;-59
2022/08/17 13:50:58;;;;;;;10.98;5.55;;;31.00;58.10;;;;;;5021697;28;20033;-61